MADIS QC Values

Here are the MADIS QC values for some of the networks in the IEM. Red numbers indicate that the observed value is too high. Blue numbers indicate that the observed value is too low. The 'QC' value is an average of all of the QC routines MADIS runs. The 'Spatial' column is a result of the Spatial Consistency Check.

Site ID: Station Name: Ob Valid: (UTC) Air Temperature [F] Dewpoint [F] Altimeter [inch]
OB: QC: Spatial: OB: QC: Spatial: OB: QC: Spatial:
AWGWASHINGTON 02 5:35Z 30MM30MM29.99MM
CNCCHARITON 02 5:35Z 37MM34MM29.94MM
CSQCRESTON 02 5:35Z 37MM34MM29.91MM
OXVKnoxville 02 5:35Z 37MM32MM29.96MM
FSWFORT MADISON 02 5:35Z 36MM32MM30.02MM
EOKKEOKUK MUNI 02 5:35Z 36MM30MM30.03MM
ICLCLARINDA 02 5:35Z 37MM32MM29.93MM
AIOATLANTIC 02 5:35Z 39MM34MM29.88MM
OLZOELWEIN 02 5:35Z 36MM34MM29.96MM
SLBStorm Lake 02 5:35Z 41MM36MM29.84MM
IKVANKENY 02 5:35Z 37MM32MM29.93MM
SDASHENANDOAH MUNI 02 5:35Z 43MM36MM29.9MM
RDKRED OAK 02 5:35Z 41MM34MM29.9MM
DEHDECORAH 02 5:35Z 37MM32MM29.92MM
IIBINDEPENDENCE 02 5:35Z 34MM31MM29.98MM
FXYForest City 02 5:35Z 34MM30MM29.88MM
I75Osceola 02 5:35Z 40MM34MM29.94MM
LRJLE MARS 02 5:35Z 41MM34MM29.8MM
CCYCHARLES CITY 02 5:35Z 37MM37MM29.91MM
AXAALGONA 02 5:35Z 41MM32MM29.84MM
CINCARROLL 02 5:35Z 39MM34MM29.86MM
CWICLINTON 02 4:56Z 33MM33MM30.04MM
ADUAUDUBON 02 5:35Z 41MM34MM29.88MM
MUTMUSCATINE 02 5:35Z 32MM32MM30.04MM
IFAIowa Falls 02 5:35Z 34MM29MM29.93MM
MXOMONTICELLO MUNI 02 5:35Z 34MM30MM29.98MM
GGIGrinnell 02 5:35Z 37MM33MM29.96MM
EBSWebster City 02 5:35Z 32MM28MM29.88MM
CAVCLARION 02 5:35Z 37MM34MM29.88MM
BNWBOONE MUNI 02 5:35Z 39MM34MM29.88MM
DNSDENISON 02 5:35Z 39MM37MM29.89MM
FFLFAIRFIELD 02 5:35Z 34MM28MM29.99MM
TNUNEWTON MUNI 02 5:35Z 34MM34MM29.94MM
ALOWaterloo 02 4:54Z 40MM31MM29.95MM
CIDCEDAR RAPIDS 02 4:52Z 35MM31MM29.98MM
FODFORT DODGE 02 4:56Z 41MM32MM29.89MM
DVNQUAD CITIES 02 4:52Z 36MM31MM30.05MM
SUXSIOUX CITY 02 4:52Z 43MM35MM29.84MM
ESTESTHERVILLE 02 4:52Z 38MM31MM29.83MM
AMWAmes 02 4:53Z 38MM31MM29.92MM
TVKCenterville 02 5:35Z 37MM32MM29.98MM
CKPCherokee 02 5:35Z 41MM35MM29.84MM
HNRHARLAN 02 5:35Z 32MM30MM29.89MM
MPZMOUNT PLEASANT 02 5:35Z 34MM32MM30.02MM
PEAPELLA 02 5:35Z 37MM31MM29.96MM
VTIVINTON 02 5:35Z 36MM33MM29.97MM
OOAOskaloosa 02 5:35Z 33MM30MM29.98MM
PROPerry 02 5:35Z 35MM29MM29.9MM
BRLBURLINGTON 02 4:53Z 35MM31MM30.02MM
MIWMARSHALLTOWN 02 4:53Z 41MM32MM29.93MM
IOWIOWA CITY 02 4:52Z 34MM30MM30.02MM
OTMOTTUMWA 02 4:53Z 35MM30MM29.98MM
DBQDUBUQUE 02 4:53Z 31MM28MM29.99MM
MCWMASON CITY 02 4:53Z 30MM25MM29.9MM
LWDLAMONI 02 4:53Z 41MM32MM29.94MM
SPWSPENCER 02 4:53Z 38MM30MM29.83MM
DSMDes Moines 02 4:54Z 41MM32MM29.94MM
ORCOrange City 2019 Feb 28 22:15Z 12-0.31.110-2.1-2.330.210.010.01
CBFCOUNCIL BLUFFS 02 5:35Z 43MM39MM29.86MM
SHLSHELDON 02 5:35Z 41MM34MM29.79MM